Time;durP1;ratioP1;P1;durP2;ratioP2;P2;SDS_P1;SDS_P2;PMS_P1;PMS_P2;Temp;Humidity;BMP_temperature;BMP_pressure;BME280_temperature;BME280_humidity;BME280_pressure;Samples;Min_cycle;Max_cycle;Signal;HPM_P1;HPM_P2
2024/03/03 00:01:34;;;;;;;;;59.67;47.00;;;;;-143.90;100.00;75219.78;4950104;28;104922;-74
2024/03/03 00:04:00;;;;;;;;;74.67;54.33;;;;;-143.90;100.00;75221.84;4951935;28;104002;-75
2024/03/03 00:06:27;;;;;;;;;79.67;61.33;;;;;-143.90;100.00;75230.09;4944765;28;103349;-74
2024/03/03 00:08:56;;;;;;;;;83.33;59.67;;;;;-143.90;100.00;75230.09;4948705;28;102041;-74
2024/03/03 00:11:22;;;;;;;;;76.00;56.00;;;;;-143.90;100.00;75228.03;4950295;28;104084;-74
2024/03/03 00:13:49;;;;;;;;;66.33;50.67;;;;;-143.90;100.00;75217.69;4950178;28;102237;-74
2024/03/03 00:16:16;;;;;;;;;49.50;41.25;;;;;-143.90;100.00;75211.50;4945455;28;102425;-74
2024/03/03 00:18:42;;;;;;;;;60.25;43.75;;;;;-143.90;100.00;75219.78;4952432;28;102033;-74
2024/03/03 00:21:16;;;;;;;;;59.67;48.67;;;;;-143.90;100.00;75207.38;4950611;28;104246;-74
2024/03/03 00:23:43;;;;;;;;;85.00;67.67;;;;;-143.90;100.00;75219.78;4951313;28;102353;-73
2024/03/03 00:26:09;;;;;;;;;85.67;64.67;;;;;-143.90;100.00;75211.50;4948517;28;102502;-73
2024/03/03 00:28:36;;;;;;;;;82.33;59.67;;;;;-143.90;100.00;75209.44;4949956;28;102222;-73
2024/03/03 00:31:03;;;;;;;;;86.33;64.67;;;;;-143.90;100.00;75211.50;4951954;28;104208;-73
2024/03/03 00:33:29;;;;;;;;;93.67;71.67;;;;;-143.90;100.00;75217.69;4952452;28;102222;-74
2024/03/03 00:35:56;;;;;;;;;95.75;83.50;;;;;-143.90;100.00;75223.91;4953730;28;102061;-74
2024/03/03 00:38:23;;;;;;;;;78.67;59.00;;;;;-143.90;100.00;75211.50;4945336;28;102059;-73
2024/03/03 00:40:50;;;;;;;;;68.67;53.33;;;;;-143.90;100.00;75221.84;4952031;28;104130;-73
2024/03/03 00:43:16;;;;;;;;;84.67;64.33;;;;;-143.90;100.00;75236.31;4951618;28;102565;-73
2024/03/03 00:45:43;;;;;;;;;85.67;62.00;;;;;-143.90;100.00;75232.19;4948602;28;106477;-74
2024/03/03 00:48:10;;;;;;;;;79.67;59.00;;;;;-143.90;100.00;75234.25;4944523;28;102037;-74
2024/03/03 00:50:36;;;;;;;;;78.67;59.33;;;;;-143.90;100.00;75234.25;4951001;28;104185;-73
2024/03/03 00:53:03;;;;;;;;;71.00;51.33;;;;;-143.90;100.00;75223.91;4947541;28;102409;-74
2024/03/03 00:55:30;;;;;;;;;63.33;47.00;;;;;-143.90;100.00;75213.56;4949478;28;101949;-74
2024/03/03 00:57:58;;;;;;;;;73.67;56.33;;;;;-143.90;100.00;75228.03;4952387;28;101988;-73
2024/03/03 01:00:25;;;;;;;;;84.00;63.00;;;;;-143.90;100.00;75234.25;4944119;28;108662;-73
2024/03/03 01:02:51;;;;;;;;;81.33;59.67;;;;;-143.90;100.00;75228.03;4949573;28;102087;-73
2024/03/03 01:05:18;;;;;;;;;85.67;64.33;;;;;-143.90;100.00;75221.84;4946252;28;102509;-73
2024/03/03 01:07:45;;;;;;;;;87.67;64.33;;;;;-143.90;100.00;75211.50;4951334;28;102417;-73
2024/03/03 01:10:12;;;;;;;;;80.33;63.00;;;;;-143.90;100.00;75211.50;4942152;28;103972;-74
2024/03/03 01:12:38;;;;;;;;;76.33;58.00;;;;;-143.90;100.00;75205.28;4949540;28;102433;-73
2024/03/03 01:15:05;;;;;;;;;73.33;54.00;;;;;-143.90;100.00;75194.97;4950489;28;101986;-73
2024/03/03 01:17:33;;;;;;;;;68.00;52.00;;;;;-143.90;100.00;75188.75;4951291;28;102077;-73
2024/03/03 01:19:59;;;;;;;;;71.00;53.00;;;;;-143.90;100.00;75180.50;4950774;28;104217;-74
2024/03/03 01:22:26;;;;;;;;;74.00;54.00;;;;;-143.90;100.00;75176.34;4944328;28;103059;-73
2024/03/03 01:24:53;;;;;;;;;62.33;51.00;;;;;-143.90;100.00;75178.41;4949151;28;107811;-73
2024/03/03 01:27:20;;;;;;;;;65.33;48.00;;;;;-143.90;100.00;75168.09;4952410;28;102058;-73
2024/03/03 01:29:46;;;;;;;;;71.00;57.33;;;;;-143.90;100.00;75172.22;4949083;28;103751;-73
2024/03/03 01:32:13;;;;;;;;;66.33;48.33;;;;;-143.90;100.00;75163.94;4942513;28;102632;-74
2024/03/03 01:34:41;;;;;;;;;49.00;38.75;;;;;-143.90;100.00;75157.75;4950586;28;102444;-73
2024/03/03 01:37:08;;;;;;;;;41.75;36.75;;;;;-143.90;100.00;75143.28;4950019;28;103094;-73
2024/03/03 01:39:36;;;;;;;;;37.00;33.75;;;;;-143.90;100.00;75139.16;4948388;28;104058;-73
2024/03/03 01:42:04;;;;;;;;;30.50;27.50;;;;;-143.90;100.00;75132.94;4948699;28;102031;-74
2024/03/03 01:44:30;;;;;;;;;28.00;24.25;;;;;-143.90;100.00;75135.00;4943765;28;102381;-73
2024/03/03 01:46:58;;;;;;;;;12.75;12.50;;;;;-143.90;100.00;75135.00;4951436;28;101893;-73
2024/03/03 01:49:26;;;;;;;;;26.75;23.75;;;;;-143.90;100.00;75139.16;4947012;28;108859;-73
2024/03/03 01:51:53;;;;;;;;;40.00;32.75;;;;;-143.90;100.00;75139.16;4945919;28;102208;-74
2024/03/03 01:54:20;;;;;;;;;42.00;36.00;;;;;-143.90;100.00;75145.34;4939599;28;102439;-74
2024/03/03 01:56:49;;;;;;;;;60.75;46.50;;;;;-143.90;100.00;75155.69;4946789;28;102535;-73
2024/03/03 01:59:16;;;;;;;;;68.67;55.00;;;;;-143.90;100.00;75170.16;4947140;28;104010;-74
2024/03/03 02:01:44;;;;;;;;;68.67;52.33;;;;;-143.90;100.00;75168.09;4944368;28;102299;-74
2024/03/03 02:04:13;;;;;;;;;79.33;59.33;;;;;-143.90;100.00;75178.41;4942080;28;102233;-74
2024/03/03 02:06:41;;;;;;;;;78.33;58.00;;;;;-143.90;100.00;75188.75;4948685;28;103588;-74
2024/03/03 02:09:10;;;;;;;;;68.00;54.33;;;;;-143.90;100.00;75192.91;4947980;28;104176;-73
2024/03/03 02:11:38;;;;;;;;;72.00;54.00;;;;;-143.90;100.00;75194.97;4948036;28;102341;-73
2024/03/03 02:14:05;;;;;;;;;68.67;51.33;;;;;-143.90;100.00;75197.03;4945155;28;102459;-74
2024/03/03 02:16:31;;;;;;;;;61.33;46.67;;;;;-143.90;100.00;75199.09;4945216;28;106717;-73
2024/03/03 02:18:58;;;;;;;;;67.00;53.00;;;;;-143.90;100.00;75213.56;4950816;28;103783;-73
2024/03/03 02:21:25;;;;;;;;;72.67;54.67;;;;;-143.90;100.00;75225.97;4947989;28;103608;-73
2024/03/03 02:23:52;;;;;;;;;64.67;51.00;;;;;-143.90;100.00;75209.44;4944909;28;102209;-73
2024/03/03 02:26:25;;;;;;;;;60.50;44.50;;;;;-143.90;100.00;75209.44;4935816;28;101979;-73
2024/03/03 02:28:53;;;;;;;;;52.50;42.75;;;;;-143.90;100.00;75217.69;4946437;28;104215;-73
2024/03/03 02:31:20;;;;;;;;;57.75;45.00;;;;;-143.90;100.00;75223.91;4944309;28;103240;-73
2024/03/03 02:33:47;;;;;;;;;59.00;46.25;;;;;-143.90;100.00;75228.03;4942823;28;102030;-74
2024/03/03 02:36:14;;;;;;;;;46.75;39.25;;;;;-143.90;100.00;75230.09;4938062;28;103211;-73
2024/03/03 02:38:43;;;;;;;;;40.50;35.00;;;;;-143.90;100.00;75232.19;4945255;28;104180;-73
2024/03/03 02:41:10;;;;;;;;;37.25;31.75;;;;;-143.90;100.00;75232.19;4947231;28;102221;-73
2024/03/03 02:43:36;;;;;;;;;44.75;38.25;;;;;-143.90;100.00;75246.66;4948616;28;102001;-72
2024/03/03 02:46:03;;;;;;;;;53.00;42.00;;;;;-143.90;100.00;75259.06;4949126;28;102395;-72
2024/03/03 02:48:31;;;;;;;;;43.50;37.00;;;;;-143.90;100.00;75254.91;4940957;28;103867;-73
2024/03/03 02:50:58;;;;;;;;;42.50;37.25;;;;;-143.90;100.00;75265.25;4950766;28;102957;-72
2024/03/03 02:53:24;;;;;;;;;58.75;45.50;;;;;-143.90;100.00;75275.59;4948253;28;102730;-72
2024/03/03 02:55:51;;;;;;;;;63.00;47.67;;;;;-143.90;100.00;75277.66;4950280;28;102530;-72
2024/03/03 02:58:18;;;;;;;;;57.00;47.33;;;;;-143.90;100.00;75285.94;4941489;28;104236;-73
2024/03/03 03:00:45;;;;;;;;;51.25;40.25;;;;;-143.90;100.00;75285.94;4949135;28;102068;-73
2024/03/03 03:03:11;;;;;;;;;56.00;43.50;;;;;-143.90;100.00;75296.25;4950290;28;102519;-73
2024/03/03 03:05:38;;;;;;;;;38.50;31.50;;;;;-143.90;100.00;75304.53;4947693;28;102194;-73
2024/03/03 03:08:05;;;;;;;;;49.00;39.75;;;;;-143.90;100.00;75300.41;4945779;28;104134;-73
2024/03/03 03:10:32;;;;;;;;;52.00;40.00;;;;;-143.90;100.00;75314.88;4941215;28;102386;-73
2024/03/03 03:12:58;;;;;;;;;43.50;37.50;;;;;-143.90;100.00;75312.81;4951764;28;102337;-73
2024/03/03 03:15:25;;;;;;;;;33.25;31.25;;;;;-143.90;100.00;75316.94;4948624;28;102219;-73
2024/03/03 03:17:52;;;;;;;;;30.50;28.50;;;;;-143.90;100.00;75321.06;4949646;28;104234;-73
2024/03/03 03:20:19;;;;;;;;;46.25;39.25;;;;;-143.90;100.00;75329.34;4941515;28;102311;-73
2024/03/03 03:22:45;;;;;;;;;54.67;42.00;;;;;-143.90;100.00;75333.47;4950149;28;104402;-73
2024/03/03 03:25:12;;;;;;;;;46.25;37.75;;;;;-143.90;100.00;75341.75;4949610;28;102147;-73
2024/03/03 03:27:40;;;;;;;;;40.00;36.25;;;;;-143.90;100.00;75350.03;4947105;28;104236;-73
2024/03/03 03:30:07;;;;;;;;;32.50;28.50;;;;;-143.90;100.00;75354.16;4944937;28;103250;-73
2024/03/03 03:32:34;;;;;;;;;44.25;38.00;;;;;-143.90;100.00;75372.75;4940731;28;103175;-73
2024/03/03 03:35:01;;;;;;;;;54.50;42.50;;;;;-143.90;100.00;75374.84;4952195;28;102489;-73
2024/03/03 03:37:27;;;;;;;;;33.00;30.25;;;;;-143.90;100.00;75385.16;4948605;28;104127;-73
2024/03/03 03:39:55;;;;;;;;;33.50;28.75;;;;;-143.90;100.00;75391.38;4944842;28;102586;-73
2024/03/03 03:42:22;;;;;;;;;43.50;38.75;;;;;-143.90;100.00;75401.72;4938253;28;102594;-73
2024/03/03 03:44:49;;;;;;;;;32.50;24.75;;;;;-143.90;100.00;75407.91;4950385;28;107694;-73
2024/03/03 03:47:16;;;;;;;;;25.00;23.50;;;;;-143.90;100.00;75412.03;4949125;28;104824;-73
2024/03/03 03:49:42;;;;;;;;;33.00;27.75;;;;;-143.90;100.00;75416.19;4947313;28;102561;-73
2024/03/03 03:52:09;;;;;;;;;49.25;41.50;;;;;-143.90;100.00;75424.44;4944389;28;102021;-73
2024/03/03 03:54:36;;;;;;;;;48.67;38.67;;;;;-143.90;100.00;75441.00;4946383;28;101990;-73
2024/03/03 03:57:03;;;;;;;;;57.33;45.00;;;;;-143.90;100.00;75453.41;4946071;28;103938;-73
2024/03/03 03:59:29;;;;;;;;;68.00;51.00;;;;;-143.90;100.00;75461.66;4949770;28;102254;-73
2024/03/03 04:01:56;;;;;;;;;66.00;48.00;;;;;-143.90;100.00;75465.81;4950849;28;102176;-73
2024/03/03 04:04:23;;;;;;;;;66.33;51.00;;;;;-143.90;100.00;75469.94;4942300;28;102127;-73
2024/03/03 04:06:50;;;;;;;;;71.00;55.33;;;;;-143.90;100.00;75484.41;4948666;28;104072;-73
2024/03/03 04:09:16;;;;;;;;;76.33;55.33;;;;;-143.90;100.00;75469.94;4945653;28;102368;-73
2024/03/03 04:11:43;;;;;;;;;81.67;58.00;;;;;-143.90;100.00;75465.81;4947134;28;102260;-73
2024/03/03 04:14:10;;;;;;;;;80.67;64.00;;;;;-143.90;100.00;75455.47;4946172;28;102058;-73
2024/03/03 04:16:37;;;;;;;;;91.67;67.33;;;;;-143.90;100.00;75436.84;4947700;28;104007;-73
2024/03/03 04:19:03;;;;;;;;;83.00;62.33;;;;;-143.90;100.00;75426.50;4945672;28;103504;-73
2024/03/03 04:21:30;;;;;;;;;88.33;66.00;;;;;-143.90;100.00;75409.97;4948611;28;102133;-74
2024/03/03 04:23:57;;;;;;;;;81.33;63.67;;;;;-143.90;100.00;75393.44;4950582;28;102124;-73
2024/03/03 04:26:23;;;;;;;;;88.00;64.33;;;;;-143.90;100.00;75383.09;4940801;28;104008;-73
2024/03/03 04:28:51;;;;;;;;;85.00;63.00;;;;;-143.90;100.00;75391.38;4949031;28;102221;-73
2024/03/03 04:31:18;;;;;;;;;89.75;64.75;;;;;-143.90;100.00;75414.13;4947192;28;102105;-73
2024/03/03 04:33:47;;;;;;;;;88.33;65.00;;;;;-143.90;100.00;75407.91;4951075;28;102551;-73
2024/03/03 04:36:14;;;;;;;;;82.00;62.00;;;;;-143.90;100.00;75403.78;4942297;28;104371;-73
2024/03/03 04:38:42;;;;;;;;;76.00;60.33;;;;;-143.90;100.00;75395.50;4950085;28;102392;-73
2024/03/03 04:41:16;;;;;;;;;89.33;65.33;;;;;-143.90;100.00;75389.31;4946307;28;102016;-73
2024/03/03 04:43:43;;;;;;;;;73.67;53.33;;;;;-143.90;100.00;75387.22;4950120;28;102247;-73
2024/03/03 04:46:10;;;;;;;;;77.33;57.33;;;;;-143.90;100.00;75385.16;4946986;28;104160;-73
2024/03/03 04:48:37;;;;;;;;;84.33;61.67;;;;;-143.90;100.00;75381.03;4945760;28;102516;-73
2024/03/03 04:51:04;;;;;;;;;79.67;55.33;;;;;-143.90;100.00;75378.97;4952051;28;102305;-73
2024/03/03 04:53:31;;;;;;;;;76.67;57.67;;;;;-143.90;100.00;75370.69;4947771;28;106612;-74
2024/03/03 04:55:57;;;;;;;;;78.67;58.00;;;;;-143.90;100.00;75366.56;4952993;28;104148;-73
2024/03/03 04:58:24;;;;;;;;;78.00;57.00;;;;;-143.90;100.00;75368.63;4939792;28;102934;-73
2024/03/03 05:00:51;;;;;;;;;70.00;53.00;;;;;-143.90;100.00;75360.34;4938250;23;104640;-73
2024/03/03 05:03:18;;;;;;;;;69.67;54.33;;;;;-143.90;100.00;75354.16;4926666;28;102495;-72
2024/03/03 05:05:44;;;;;;;;;66.33;51.33;;;;;-143.90;100.00;75356.22;4935040;28;104104;-71
2024/03/03 05:08:11;;;;;;;;;63.67;50.33;;;;;-143.90;100.00;75358.28;4932688;28;102434;-72
2024/03/03 05:10:38;;;;;;;;;62.67;47.33;;;;;-143.90;100.00;75356.22;4945627;28;102580;-72
2024/03/03 05:13:05;;;;;;;;;59.00;46.33;;;;;-143.90;100.00;75374.84;4949673;28;102424;-71
2024/03/03 05:15:32;;;;;;;;;55.00;39.33;;;;;-143.90;100.00;75374.84;4962714;28;104056;-72
2024/03/03 05:18:00;;;;;;;;;57.33;41.00;;;;;-143.90;100.00;75383.09;4946144;28;105203;-73
2024/03/03 05:20:27;;;;;;;;;58.33;46.67;;;;;-143.90;100.00;75383.09;4937567;28;105428;-73
2024/03/03 05:22:54;;;;;;;;;58.00;47.00;;;;;-143.90;100.00;75391.38;4946161;28;102305;-72
2024/03/03 05:25:21;;;;;;;;;60.00;48.00;;;;;-143.90;100.00;75383.09;4944570;28;104096;-73
2024/03/03 05:27:47;;;;;;;;;54.00;42.00;;;;;-143.90;100.00;75374.84;4946844;28;102852;-72
2024/03/03 05:30:14;;;;;;;;;59.33;46.33;;;;;-143.90;100.00;75383.09;4917486;28;108014;-73
2024/03/03 05:32:41;;;;;;;;;73.00;56.67;;;;;-143.90;100.00;75370.69;4947242;28;102230;-73
2024/03/03 05:35:08;;;;;;;;;76.00;57.33;;;;;-143.90;100.00;75364.50;4944043;28;104101;-72
2024/03/03 05:37:34;;;;;;;;;70.67;55.33;;;;;-143.90;100.00;75352.09;4945078;28;102012;-72
2024/03/03 05:40:01;;;;;;;;;69.00;54.00;;;;;-143.90;100.00;75339.69;4943314;28;102335;-72
2024/03/03 05:42:28;;;;;;;;;65.00;52.00;;;;;-143.90;100.00;75333.47;4939551;28;102459;-72
2024/03/03 05:44:55;;;;;;;;;71.67;51.33;;;;;-143.90;100.00;75316.94;4941458;28;112082;-72
2024/03/03 05:47:22;;;;;;;;;62.00;46.67;;;;;-143.90;100.00;75308.66;4944285;28;106357;-72
2024/03/03 05:49:48;;;;;;;;;62.67;52.33;;;;;-143.90;100.00;75308.66;4944877;28;102456;-72
2024/03/03 05:52:15;;;;;;;;;61.67;46.67;;;;;-143.90;100.00;75308.66;4934564;28;102047;-72
2024/03/03 05:54:42;;;;;;;;;66.33;47.33;;;;;-143.90;100.00;75308.66;4943642;28;102926;-72
2024/03/03 05:57:11;;;;;;;;;71.33;54.00;;;;;-143.90;100.00;75304.53;4947387;28;102417;-72
2024/03/03 05:59:37;;;;;;;;;63.67;49.67;;;;;-143.90;100.00;75296.25;4963998;27;102086;-72
2024/03/03 06:02:04;;;;;;;;;60.33;45.67;;;;;-143.90;100.00;75300.41;4962950;28;102040;-73
2024/03/03 06:04:35;;;;;;;;;57.67;46.33;;;;;-143.90;100.00;75312.81;4960393;28;103941;-71
2024/03/03 06:07:04;;;;;;;;;53.25;41.00;;;;;-143.90;100.00;75304.53;4965307;27;104346;-72
2024/03/03 06:09:31;;;;;;;;;42.50;33.50;;;;;-143.90;100.00;75296.25;4965176;28;105059;-71
2024/03/03 06:12:02;;;;;;;;;36.25;31.00;;;;;-143.90;100.00;75288.00;4968377;28;102478;-72
2024/03/03 06:14:28;;;;;;;;;23.00;20.75;;;;;-143.90;100.00;75279.72;4954579;27;108981;-72
2024/03/03 06:16:55;;;;;;;;;30.50;25.00;;;;;-143.90;100.00;75279.72;4964310;27;102686;-71
2024/03/03 06:19:21;;;;;;;;;55.50;42.25;;;;;-143.90;100.00;75261.13;4956977;28;101830;-72
2024/03/03 06:21:50;;;;;;;;;61.33;48.33;;;;;-143.90;100.00;75250.78;4966855;28;102320;-72
2024/03/03 06:24:18;;;;;;;;;59.67;47.00;;;;;-143.90;100.00;75250.78;4949886;28;103998;-72
2024/03/03 06:26:45;;;;;;;;;59.00;46.00;;;;;-143.90;100.00;75244.59;4965118;28;102204;-72
2024/03/03 06:29:12;;;;;;;;;56.67;45.33;;;;;-143.90;100.00;75236.31;4964821;27;102290;-72
2024/03/03 06:31:45;;;;;;;;;59.67;46.00;;;;;-143.90;100.00;75221.84;4967326;27;102517;-71
2024/03/03 06:34:12;;;;;;;;;53.50;43.75;;;;;-143.90;100.00;75209.44;4955701;28;104090;-72
2024/03/03 06:36:40;;;;;;;;;57.75;42.50;;;;;-143.90;100.00;75188.75;4962662;27;104620;-71
2024/03/03 06:39:12;;;;;;;;;58.50;43.75;;;;;-143.90;100.00;75180.50;4963326;28;104757;-72
2024/03/03 06:41:39;;;;;;;;;47.75;39.50;;;;;-143.90;100.00;75168.09;4961010;28;102546;-72
2024/03/03 06:44:06;;;;;;;;;55.75;41.75;;;;;-143.90;100.00;75163.94;4960198;28;103925;-72
2024/03/03 06:46:33;;;;;;;;;57.50;42.00;;;;;-143.90;100.00;75155.69;4959214;28;102325;-73
2024/03/03 06:48:59;;;;;;;;;34.50;33.00;;;;;-143.90;100.00;75143.28;4964712;28;102760;-72
2024/03/03 06:51:26;;;;;;;;;31.25;28.25;;;;;-143.90;100.00;75126.75;4963542;28;102716;-72
2024/03/03 06:53:53;;;;;;;;;31.75;27.25;;;;;-143.90;100.00;75106.06;4963454;28;104534;-71
2024/03/03 06:56:19;;;;;;;;;20.00;19.75;;;;;-143.90;100.00;75089.53;4952992;28;102430;-72
2024/03/03 06:58:46;;;;;;;;;41.50;37.00;;;;;-143.90;100.00;75089.53;4964613;28;105184;-72
2024/03/03 07:01:13;;;;;;;;;44.50;36.75;;;;;-143.90;100.00;75089.53;4964424;28;102416;-72
2024/03/03 07:06:26;;;;;;;;;40.50;38.00;;;;;-143.90;100.00;75083.31;4954779;28;102245;-71
2024/03/03 07:08:52;;;;;;;;;49.25;39.25;;;;;-143.90;100.00;75093.66;4963154;28;102501;-71
2024/03/03 07:11:19;;;;;;;;;52.50;41.25;;;;;-143.90;100.00;75083.31;4964907;28;103342;-71
2024/03/03 07:13:46;;;;;;;;;51.25;40.00;;;;;-143.90;100.00;75077.13;4965017;28;103941;-72
2024/03/03 07:16:12;;;;;;;;;48.50;38.00;;;;;-143.90;100.00;75072.97;4953847;28;102202;-72
2024/03/03 07:18:39;;;;;;;;;52.75;40.00;;;;;-143.90;100.00;75064.72;4963349;28;103111;-72
2024/03/03 07:21:06;;;;;;;;;44.50;38.25;;;;;-143.90;100.00;75048.19;4965273;28;102540;-72
2024/03/03 07:23:33;;;;;;;;;44.50;37.25;;;;;-143.90;100.00;75035.78;4962468;28;104092;-72
2024/03/03 07:25:59;;;;;;;;;52.00;41.75;;;;;-143.90;100.00;75019.22;4965186;28;102617;-72
2024/03/03 07:28:26;;;;;;;;;46.00;36.75;;;;;-143.90;100.00;75002.69;4954409;28;102503;-72
2024/03/03 07:30:53;;;;;;;;;44.75;38.75;;;;;-143.90;100.00;74992.38;4965631;28;103029;-72
2024/03/03 07:33:19;;;;;;;;;40.25;35.50;;;;;-143.90;100.00;74975.81;4962157;28;104006;-72
2024/03/03 07:35:46;;;;;;;;;37.50;33.00;;;;;-143.90;100.00;74963.41;4963688;28;101984;-72
2024/03/03 07:38:14;;;;;;;;;47.75;39.00;;;;;-143.90;100.00;74953.09;4953802;28;102232;-72
2024/03/03 07:40:41;;;;;;;;;40.50;36.75;;;;;-143.90;100.00;74942.75;4964375;28;102457;-72
2024/03/03 07:43:08;;;;;;;;;42.50;36.75;;;;;-143.90;100.00;74926.22;4963583;28;104076;-72
2024/03/03 07:45:35;;;;;;;;;46.50;35.25;;;;;-143.90;100.00;74911.72;4963042;27;102394;-72
2024/03/03 07:48:01;;;;;;;;;33.50;30.50;;;;;-143.90;100.00;74895.19;4961894;28;102229;-72
2024/03/03 07:50:29;;;;;;;;;39.00;32.75;;;;;-143.90;100.00;74878.66;4954138;28;102597;-72
2024/03/03 07:52:55;;;;;;;;;32.50;30.25;;;;;-143.90;100.00;74866.25;4959517;28;104058;-72
2024/03/03 07:55:22;;;;;;;;;23.50;19.75;;;;;-143.90;100.00;74837.31;4963549;28;104699;-72
2024/03/03 07:57:49;;;;;;;;;30.00;26.75;;;;;-143.90;100.00;74818.72;4959746;28;102340;-72
2024/03/03 08:00:17;;;;;;;;;26.50;21.00;;;;;-143.90;100.00;74795.97;4952114;28;102689;-72
2024/03/03 08:02:43;;;;;;;;;25.25;22.25;;;;;-143.90;100.00;74775.31;4961427;28;103943;-71
2024/03/03 08:05:10;;;;;;;;;25.75;21.00;;;;;-143.90;100.00;74740.16;4962223;28;102098;-72
2024/03/03 08:07:37;;;;;;;;;24.00;22.25;;;;;-143.90;100.00;74717.41;4965496;28;102084;-72
2024/03/03 08:10:05;;;;;;;;;16.00;14.75;;;;;-143.90;100.00;74719.47;4966782;28;102101;-72
2024/03/03 08:12:32;;;;;;;;;17.00;13.75;;;;;-143.90;100.00;74700.88;4961785;28;104062;-72
2024/03/03 08:15:00;;;;;;;;;23.00;19.50;;;;;-143.90;100.00;74696.75;4968705;27;102272;-73
2024/03/03 08:17:27;;;;;;;;;22.25;19.00;;;;;-143.90;100.00;74696.75;4966491;28;102097;-72
2024/03/03 08:19:53;;;;;;;;;25.50;22.00;;;;;-143.90;100.00;74690.53;4958681;28;102522;-72
2024/03/03 08:22:20;;;;;;;;;29.00;22.25;;;;;-143.90;100.00;74671.94;4955834;28;104206;-72
2024/03/03 08:24:47;;;;;;;;;26.00;23.00;;;;;-143.90;100.00;74688.47;4966972;28;102283;-73
2024/03/03 08:27:13;;;;;;;;;23.50;19.50;;;;;-143.90;100.00;74696.75;4964224;28;102011;-72
2024/03/03 08:29:40;;;;;;;;;23.25;19.25;;;;;-143.90;100.00;74680.22;4967750;28;101919;-72
2024/03/03 08:32:07;;;;;;;;;25.75;22.25;;;;;-143.90;100.00;74684.34;4952358;28;104141;-72
2024/03/03 08:34:34;;;;;;;;;18.00;16.25;;;;;-143.90;100.00;74659.53;4958882;28;102707;-72
2024/03/03 08:37:01;;;;;;;;;16.25;13.50;;;;;-143.90;100.00;74638.88;4967092;28;103614;-72
2024/03/03 08:39:28;;;;;;;;;16.75;12.75;;;;;-143.90;100.00;74612.00;4967847;28;102812;-72
2024/03/03 08:41:55;;;;;;;;;21.75;19.00;;;;;-143.90;100.00;74618.19;4966313;28;104201;-72
2024/03/03 08:44:21;;;;;;;;;23.25;19.50;;;;;-143.90;100.00;74605.78;4954220;28;104325;-72
2024/03/03 08:46:51;;;;;;;;;21.25;18.00;;;;;-143.90;100.00;74578.91;4965875;28;102476;-72
2024/03/03 08:49:19;;;;;;;;;20.00;17.00;;;;;-143.90;100.00;74541.72;4964835;28;102168;-71
2024/03/03 08:51:46;;;;;;;;;20.50;18.25;;;;;-143.90;100.00;74529.31;4964451;28;104038;-72
2024/03/03 08:54:13;;;;;;;;;25.00;19.50;;;;;-143.90;100.00;74512.78;4957463;27;102503;-72
2024/03/03 08:56:41;;;;;;;;;16.50;14.00;;;;;-143.90;100.00;74487.97;4973558;28;102152;-72
2024/03/03 08:59:08;;;;;;;;;13.25;13.00;;;;;-143.90;100.00;74481.78;4965993;28;102227;-72
2024/03/03 09:01:38;;;;;;;;;13.25;12.25;;;;;-143.90;100.00;74490.03;4962134;28;104183;-72
2024/03/03 09:04:05;;;;;;;;;13.75;11.50;;;;;-143.90;100.00;74487.97;4960843;27;102734;-72
2024/03/03 09:06:32;;;;;;;;;11.00;10.00;;;;;-143.90;72.76;74465.22;4961476;28;102108;-72
2024/03/03 09:08:58;;;;;;;;;9.25;7.25;;;;;-143.90;67.78;74452.84;4968093;28;101945;-72
2024/03/03 09:11:27;;;;;;;;;10.50;9.50;;;;;-143.90;69.53;74434.22;4964519;27;104025;-72
2024/03/03 09:13:54;;;;;;;;;8.00;6.50;;;;;-143.90;67.90;74436.28;4964347;28;102130;-72
2024/03/03 09:16:20;;;;;;;;;14.25;12.00;;;;;-143.90;70.13;74436.28;4955767;28;102732;-72
2024/03/03 09:18:49;;;;;;;;;9.75;8.50;;;;;-143.90;67.27;74428.03;4960172;28;102619;-72
2024/03/03 09:21:16;;;;;;;;;9.75;9.25;;;;;-143.90;70.13;74423.88;4962308;28;103984;-72
2024/03/03 09:23:43;;;;;;;;;13.25;11.50;;;;;-143.90;68.90;74411.50;4961255;28;102677;-72
2024/03/03 09:26:09;;;;;;;;;11.25;9.00;;;;;-143.90;68.10;74419.75;4956464;28;102968;-72
2024/03/03 09:28:36;;;;;;;;;15.00;13.75;;;;;-143.90;69.00;74419.75;4956473;27;102065;-72
2024/03/03 09:31:04;;;;;;;;;14.50;13.00;;;;;-143.90;68.29;74390.81;4965288;27;104026;-72
2024/03/03 09:33:31;;;;;;;;;9.75;8.00;;;;;-143.90;67.56;74378.41;4966810;28;102657;-73
2024/03/03 09:35:58;;;;;;;;;9.50;9.00;;;;;-143.90;69.23;74349.47;4965406;28;106050;-72
2024/03/03 09:38:25;;;;;;;;;22.00;17.50;;;;;-143.90;68.77;74386.69;4954955;28;102152;-72
2024/03/03 09:40:51;;;;;;;;;16.75;15.25;;;;;-143.90;68.47;74363.94;4965957;28;104160;-72
2024/03/03 09:43:27;;;;;;;;;12.50;12.00;;;;;-143.90;66.12;74351.53;4964404;28;102781;-71
2024/03/03 09:45:54;;;;;;;;;11.75;10.00;;;;;-143.90;68.28;74324.69;4965534;28;101955;-72
2024/03/03 09:48:22;;;;;;;;;13.75;11.00;;;;;-143.90;65.83;74297.81;4954091;28;102378;-72
2024/03/03 09:50:51;;;;;;;;;11.00;10.25;;;;;-143.90;65.05;74297.81;4963412;28;104187;-72
2024/03/03 09:53:20;;;;;;;;;20.75;16.25;;;;;-143.90;65.65;74314.34;4965411;27;102640;-71
2024/03/03 09:55:47;;;;;;;;;13.25;11.50;;;;;-143.90;65.77;74266.81;4960980;28;104801;-71
2024/03/03 09:58:14;;;;;;;;;13.00;12.50;;;;;-143.90;63.77;74244.06;4955244;27;102155;-72
2024/03/03 10:00:41;;;;;;;;;13.50;11.75;;;;;-143.90;61.46;74225.47;4965715;28;104182;-71
2024/03/03 10:03:09;;;;;;;;;9.50;8.25;;;;;-143.90;63.17;74196.53;4962801;28;102376;-73
2024/03/03 10:05:41;;;;;;;;;9.50;9.50;;;;;-143.90;63.62;74157.25;4965267;28;101971;-72
2024/03/03 10:08:13;;;;;;;;;13.50;12.50;;;;;-143.90;61.84;74130.38;4958123;28;102586;-71
2024/03/03 10:10:45;;;;;;;;;16.75;14.25;;;;;-143.90;61.43;74153.13;4963237;28;108469;-71
2024/03/03 10:13:15;;;;;;;;;11.00;8.00;;;;;-143.90;61.80;74192.41;4963487;28;101885;-71
2024/03/03 10:15:45;;;;;;;;;11.50;11.25;;;;;-143.90;64.54;74215.13;4959085;28;102877;-72
2024/03/03 10:18:11;;;;;;;;;14.00;12.50;;;;;-143.90;61.24;74198.59;4952082;28;102115;-70
2024/03/03 10:20:38;;;;;;;;;10.25;9.00;;;;;-143.90;61.55;74196.53;4961635;28;104196;-70
2024/03/03 10:23:05;;;;;;;;;12.50;10.25;;;;;-143.90;60.25;74213.06;4963922;28;102022;-71
2024/03/03 10:25:32;;;;;;;;;7.50;7.25;;;;;-143.90;60.70;74215.13;4963187;28;104495;-71
2024/03/03 10:28:25;;;;;;;;;6.00;6.00;;;;;-143.90;58.23;74159.31;4961477;28;102080;-73
2024/03/03 10:31:12;;;;;;;;;5.75;5.75;;;;;-143.90;55.93;74180.00;4958347;28;108777;-71
2024/03/03 10:33:53;;;;;;;;;6.00;6.00;;;;;-143.90;58.76;74196.53;4955129;28;103496;-71
2024/03/03 10:36:23;;;;;;;;;5.50;5.00;;;;;-143.90;56.50;74177.94;4953278;28;101874;-71
2024/03/03 10:38:55;;;;;;;;;3.33;2.33;;;;;-143.90;57.78;74151.06;4963363;28;102355;-71
2024/03/03 10:41:22;;;;;;;;;4.75;4.00;;;;;-143.90;57.05;74134.53;4962914;28;104202;-72
2024/03/03 10:43:49;;;;;;;;;6.25;6.00;;;;;-143.90;58.41;74132.44;4964809;28;102281;-71
2024/03/03 10:46:18;;;;;;;;;10.00;8.75;;;;;-143.90;56.99;74144.84;4955919;28;102351;-72
2024/03/03 10:48:46;;;;;;;;;7.25;7.00;;;;;-143.90;54.80;74109.72;4965257;27;102459;-71
2024/03/03 10:51:19;;;;;;;;;8.50;8.00;;;;;-143.90;56.29;74097.31;4962836;28;103990;-72
2024/03/03 10:53:51;;;;;;;;;13.00;10.50;;;;;-143.90;56.55;74109.72;4965868;28;102040;-72